createdAt,value
2022-10-07T00:00:21.137Z,7.25
2022-10-07T00:03:06.917Z,10.15
2022-10-07T00:06:07.102Z,8.05
2022-10-07T00:08:53.899Z,9.27
2022-10-07T00:11:39.651Z,8.65
2022-10-07T00:14:25.166Z,9.32
2022-10-07T00:17:10.797Z,9.77
2022-10-07T00:19:58.211Z,9.43
2022-10-07T00:22:43.735Z,12.38
2022-10-07T00:25:29.186Z,10.02
2022-10-07T00:28:14.414Z,11.45
2022-10-07T00:31:01.793Z,7.60
2022-10-07T00:33:48.381Z,11.70
2022-10-07T00:36:35.889Z,9.20
2022-10-07T00:39:20.984Z,7.40
2022-10-07T00:42:06.551Z,14.48
2022-10-07T00:44:52.165Z,11.82
2022-10-07T00:47:38.003Z,6.80
2022-10-07T00:50:29.528Z,8.20
2022-10-07T00:53:14.981Z,7.47
2022-10-07T00:56:02.912Z,8.23
2022-10-07T00:58:50.357Z,9.18
2022-10-07T01:01:35.985Z,7.45
2022-10-07T01:04:21.361Z,7.45
2022-10-07T01:07:06.975Z,10.20
2022-10-07T01:09:54.503Z,8.65
2022-10-07T01:13:09.779Z,8.45
2022-10-07T01:16:17.665Z,9.02
2022-10-07T01:19:32.418Z,7.40
2022-10-07T01:22:38.003Z,6.90
2022-10-07T01:25:50.100Z,12.63
2022-10-07T01:29:01.274Z,7.78
2022-10-07T01:31:56.518Z,10.50
2022-10-07T01:34:43.750Z,9.18
2022-10-07T01:37:34.957Z,6.20
2022-10-07T01:40:25.367Z,7.90
2022-10-07T01:43:13.844Z,10.07
2022-10-07T01:45:59.740Z,8.23
2022-10-07T01:48:48.828Z,9.35
2022-10-07T01:51:37.559Z,8.93
2022-10-07T01:54:42.266Z,6.80
2022-10-07T01:57:35.107Z,6.95
2022-10-07T02:00:20.435Z,7.15
2022-10-07T02:03:21.861Z,8.57
2022-10-07T02:06:11.212Z,5.57
2022-10-07T02:08:57.586Z,8.95
2022-10-07T02:11:44.949Z,8.95
2022-10-07T02:14:39.144Z,8.50
2022-10-07T02:17:28.010Z,8.57
2022-10-07T02:20:16.202Z,7.63
2022-10-07T02:23:04.991Z,7.55
2022-10-07T02:25:52.464Z,7.47
2022-10-07T02:28:41.913Z,9.88
2022-10-07T02:31:31.526Z,12.73
2022-10-07T02:34:22.845Z,12.80
2022-10-07T02:37:19.557Z,16.13
2022-10-07T02:40:09.705Z,11.30
2022-10-07T02:43:04.166Z,14.45
2022-10-07T02:45:55.867Z,10.75
2022-10-07T02:48:47.483Z,10.13
2022-10-07T02:51:39.314Z,6.65
2022-10-07T02:54:51.883Z,6.55
2022-10-07T02:57:46.442Z,8.20
2022-10-07T03:00:36.824Z,6.65
2022-10-07T03:03:23.183Z,5.97
2022-10-07T03:06:08.627Z,5.22
2022-10-07T03:08:55.044Z,4.80
2022-10-07T03:11:40.723Z,6.43
2022-10-07T03:14:26.353Z,7.30
2022-10-07T03:17:11.608Z,6.47
2022-10-07T03:19:57.851Z,5.60
2022-10-07T03:22:43.704Z,8.95
2022-10-07T03:25:29.188Z,9.70
2022-10-07T03:28:15.019Z,6.90
2022-10-07T03:31:10.755Z,8.27
2022-10-07T03:33:56.943Z,4.25
2022-10-07T03:36:42.756Z,6.80
2022-10-07T03:39:28.146Z,7.45
2022-10-07T03:42:13.931Z,6.30
2022-10-07T03:44:59.398Z,7.00
2022-10-07T03:47:45.282Z,7.25
2022-10-07T03:50:31.188Z,10.23
2022-10-07T03:53:16.949Z,9.45
2022-10-07T03:56:02.268Z,6.40
2022-10-07T03:58:47.960Z,9.00
2022-10-07T04:01:33.712Z,10.15
2022-10-07T04:04:19.919Z,9.52
2022-10-07T04:07:05.282Z,7.25
2022-10-07T04:09:50.789Z,7.38
2022-10-07T04:12:36.265Z,11.20
2022-10-07T04:15:22.167Z,8.98
2022-10-07T04:18:07.343Z,9.93
2022-10-07T04:20:52.947Z,8.25
2022-10-07T04:23:41.018Z,8.05
2022-10-07T04:26:26.469Z,8.40
2022-10-07T04:29:11.803Z,6.88
2022-10-07T04:31:58.903Z,10.90
2022-10-07T04:34:44.494Z,10.90
2022-10-07T04:37:30.642Z,11.75
2022-10-07T04:40:16.810Z,9.25
2022-10-07T04:43:20.268Z,12.13
2022-10-07T04:46:07.022Z,13.02
2022-10-07T04:48:52.267Z,8.73
2022-10-07T04:51:37.722Z,8.95
2022-10-07T04:54:23.169Z,14.02
2022-10-07T04:57:10.128Z,12.43
2022-10-07T04:59:56.403Z,10.45
2022-10-07T05:02:41.745Z,9.43
2022-10-07T05:05:27.952Z,9.95
2022-10-07T05:08:15.151Z,7.50
2022-10-07T05:11:01.932Z,8.93
2022-10-07T05:13:47.519Z,8.43
2022-10-07T05:16:33.522Z,7.60
2022-10-07T05:19:20.088Z,8.38
2022-10-07T05:22:06.425Z,12.38
2022-10-07T05:24:51.821Z,8.25
2022-10-07T05:27:37.547Z,7.10
2022-10-07T05:30:22.935Z,7.47
2022-10-07T05:33:09.995Z,7.18
2022-10-07T05:35:55.617Z,7.40
2022-10-07T05:38:41.482Z,9.52
2022-10-07T05:41:29.915Z,9.50
2022-10-07T05:44:15.368Z,9.35
2022-10-07T05:47:01.954Z,6.80
2022-10-07T05:49:47.969Z,9.73
2022-10-07T05:52:33.533Z,8.88
2022-10-07T05:55:19.217Z,8.43
2022-10-07T05:58:06.292Z,10.07
2022-10-07T06:01:04.524Z,8.93
2022-10-07T06:03:53.222Z,7.18
2022-10-07T06:06:39.043Z,9.30
2022-10-07T06:09:42.761Z,9.23
2022-10-07T06:12:46.722Z,8.85
2022-10-07T06:15:32.328Z,7.70
2022-10-07T06:18:17.816Z,8.68
2022-10-07T06:21:03.918Z,7.43
2022-10-07T06:23:53.074Z,8.98
2022-10-07T06:26:38.731Z,10.00
2022-10-07T06:29:27.191Z,9.95
2022-10-07T06:32:12.718Z,11.32
2022-10-07T06:34:58.456Z,9.55
2022-10-07T06:37:43.845Z,9.90
2022-10-07T06:40:29.249Z,7.32
2022-10-07T06:43:14.679Z,10.93
2022-10-07T06:46:04.989Z,7.00
2022-10-07T06:48:51.486Z,9.20
2022-10-07T06:51:36.733Z,12.00
2022-10-07T06:54:22.341Z,8.68
2022-10-07T06:57:26.248Z,9.93
2022-10-07T07:00:14.270Z,10.05
2022-10-07T07:03:02.369Z,9.02
2022-10-07T07:05:49.720Z,6.97
2022-10-07T07:08:37.046Z,10.00
2022-10-07T07:11:37.876Z,11.88
2022-10-07T07:14:23.421Z,8.82
2022-10-07T07:17:09.316Z,9.80
2022-10-07T07:19:55.523Z,12.98
2022-10-07T07:22:41.894Z,5.50
2022-10-07T07:25:27.038Z,8.63
2022-10-07T07:28:15.298Z,7.63
2022-10-07T07:31:01.188Z,10.43
2022-10-07T07:33:52.373Z,11.18
2022-10-07T07:36:40.116Z,11.48
2022-10-07T07:39:25.522Z,10.93
2022-10-07T07:42:10.817Z,9.60
2022-10-07T07:44:59.102Z,8.73
2022-10-07T07:47:47.688Z,7.70
2022-10-07T07:50:33.995Z,15.75
2022-10-07T07:53:19.760Z,11.35
2022-10-07T07:56:05.477Z,9.13
2022-10-07T07:58:51.068Z,10.35
2022-10-07T08:01:36.449Z,9.15
2022-10-07T08:04:22.915Z,9.70
2022-10-07T08:07:08.860Z,9.85
2022-10-07T08:09:54.324Z,11.60
2022-10-07T08:12:40.316Z,14.82
2022-10-07T08:15:25.583Z,14.23
2022-10-07T08:18:11.148Z,12.27
2022-10-07T08:21:02.481Z,11.27
2022-10-07T08:23:48.311Z,9.35
2022-10-07T08:26:35.123Z,9.88
2022-10-07T08:29:21.261Z,12.57
2022-10-07T08:32:06.752Z,10.40
2022-10-07T08:34:52.319Z,9.32
2022-10-07T08:37:38.111Z,12.68
2022-10-07T08:40:23.471Z,14.43
2022-10-07T08:43:09.569Z,10.13
2022-10-07T08:45:56.044Z,11.07
2022-10-07T08:48:46.064Z,11.48
2022-10-07T08:51:40.701Z,9.38
2022-10-07T08:54:29.275Z,10.23
2022-10-07T08:57:40.146Z,12.38
2022-10-07T09:00:25.454Z,9.93
2022-10-07T09:03:54.600Z,9.05
2022-10-07T09:06:52.540Z,12.30
2022-10-07T09:09:51.593Z,10.32
2022-10-07T09:12:44.826Z,7.82
2022-10-07T09:15:30.428Z,10.98
2022-10-07T09:18:34.023Z,10.25
2022-10-07T09:21:25.464Z,10.32
2022-10-07T09:24:18.124Z,11.15
2022-10-07T09:27:12.886Z,9.45
2022-10-07T09:32:46.932Z,10.25
2022-10-07T09:35:32.412Z,9.63
2022-10-07T09:38:31.997Z,11.48
2022-10-07T09:41:32.259Z,11.30
2022-10-07T09:44:18.215Z,9.90
2022-10-07T09:47:19.846Z,9.98
2022-10-07T09:50:06.028Z,12.13
2022-10-07T09:52:55.967Z,11.13
2022-10-07T09:55:43.641Z,12.85
2022-10-07T09:58:31.411Z,8.93
2022-10-07T10:01:16.892Z,10.23
2022-10-07T10:04:02.704Z,9.02
2022-10-07T10:06:50.718Z,10.65
2022-10-07T10:09:36.331Z,8.85
2022-10-07T10:12:23.585Z,9.88
2022-10-07T10:15:38.988Z,9.73
2022-10-07T10:18:32.106Z,10.30
2022-10-07T10:21:30.649Z,11.27
2022-10-07T10:24:16.772Z,11.30
2022-10-07T10:27:30.298Z,9.43
2022-10-07T10:30:23.484Z,12.50
2022-10-07T10:33:29.215Z,10.95
2022-10-07T10:36:24.004Z,9.82
2022-10-07T10:42:09.316Z,11.35
2022-10-07T10:45:27.732Z,10.00
2022-10-07T10:48:38.107Z,11.50
2022-10-07T10:51:54.776Z,11.35
2022-10-07T10:54:43.290Z,10.23
2022-10-07T10:57:37.734Z,10.23
2022-10-07T11:00:24.143Z,8.30
2022-10-07T11:03:41.589Z,9.57
2022-10-07T11:06:29.007Z,10.68
2022-10-07T11:09:30.453Z,7.95
2022-10-07T11:12:30.577Z,10.13
2022-10-07T11:15:22.732Z,8.77
2022-10-07T11:18:21.836Z,8.23
2022-10-07T11:21:13.264Z,8.85
2022-10-07T11:24:13.723Z,7.32
2022-10-07T11:27:08.616Z,8.10
2022-10-07T11:30:00.627Z,7.95
2022-10-07T11:33:08.127Z,8.05
2022-10-07T11:36:03.907Z,13.57
2022-10-07T11:38:52.663Z,9.23
2022-10-07T11:42:08.141Z,7.95
2022-10-07T11:44:58.094Z,7.88
2022-10-07T11:47:58.374Z,6.78
2022-10-07T11:50:59.665Z,6.30
2022-10-07T11:53:45.229Z,7.68
2022-10-07T11:56:44.392Z,8.38
2022-10-07T11:59:58.088Z,7.63
2022-10-07T12:02:46.374Z,8.48
2022-10-07T12:05:35.518Z,7.35
2022-10-07T12:08:38.639Z,8.80
2022-10-07T12:11:24.676Z,7.60
2022-10-07T12:14:33.817Z,8.52
2022-10-07T12:17:22.883Z,7.45
2022-10-07T12:20:45.242Z,8.90
2022-10-07T12:23:31.074Z,8.23
2022-10-07T12:26:30.439Z,7.95
2022-10-07T12:29:22.397Z,7.32
2022-10-07T12:32:46.497Z,8.10
2022-10-07T12:35:34.891Z,8.50
2022-10-07T12:38:26.091Z,7.10
2022-10-07T12:41:11.550Z,13.00
2022-10-07T12:44:22.751Z,9.18
2022-10-07T12:47:24.875Z,7.32
2022-10-07T12:50:18.457Z,6.97
2022-10-07T12:53:04.206Z,10.18
2022-10-07T12:55:52.418Z,10.00
2022-10-07T12:59:47.083Z,8.55
2022-10-07T13:02:51.127Z,6.28
2022-10-07T13:06:24.121Z,9.15
2022-10-07T13:09:50.047Z,9.15
2022-10-07T13:12:40.105Z,5.32
2022-10-07T13:15:41.373Z,8.63
2022-10-07T13:18:40.459Z,5.65
2022-10-07T13:21:33.093Z,8.35
2022-10-07T13:24:24.439Z,8.75
2022-10-07T13:27:10.873Z,6.32
2022-10-07T13:29:58.189Z,7.13
2022-10-07T13:32:43.976Z,7.45
2022-10-07T13:35:34.096Z,7.97
2022-10-07T13:38:26.258Z,6.13
2022-10-07T13:41:26.211Z,6.88
2022-10-07T13:44:15.759Z,5.88
2022-10-07T13:47:04.521Z,9.65
2022-10-07T13:49:53.247Z,6.55
2022-10-07T13:52:47.058Z,9.63
2022-10-07T13:55:35.417Z,6.53
2022-10-07T13:58:20.920Z,5.72
2022-10-07T14:01:06.660Z,5.32
2022-10-07T14:04:12.031Z,5.90
2022-10-07T14:07:00.708Z,6.28
2022-10-07T14:09:47.918Z,6.15
2022-10-07T14:12:41.157Z,8.75
2022-10-07T14:15:29.326Z,5.80
2022-10-07T14:18:16.930Z,6.32
2022-10-07T14:21:10.790Z,6.32
2022-10-07T14:23:56.531Z,6.53
2022-10-07T14:26:43.825Z,5.80
2022-10-07T14:29:29.366Z,6.03
2022-10-07T14:32:39.588Z,6.50
2022-10-07T14:35:27.006Z,5.38
2022-10-07T14:38:39.692Z,5.50
2022-10-07T14:41:28.871Z,5.35
2022-10-07T14:44:15.516Z,4.97
2022-10-07T14:47:12.497Z,5.35
2022-10-07T14:50:01.731Z,5.75
2022-10-07T14:52:51.933Z,6.43
2022-10-07T14:55:39.273Z,4.70
2022-10-07T14:58:25.220Z,6.80
2022-10-07T15:01:10.840Z,6.22
2022-10-07T15:03:57.558Z,5.90
2022-10-07T15:06:46.323Z,6.10
2022-10-07T15:09:34.468Z,5.10
2022-10-07T15:12:19.877Z,6.68
2022-10-07T15:15:05.988Z,6.25
2022-10-07T15:17:51.433Z,7.45
2022-10-07T15:20:36.910Z,4.63
2022-10-07T15:23:22.320Z,7.50
2022-10-07T15:26:09.715Z,5.97
2022-10-07T15:28:58.202Z,4.80
2022-10-07T15:31:43.729Z,4.80
2022-10-07T15:34:29.067Z,6.53
2022-10-07T15:37:15.015Z,6.22
2022-10-07T15:40:00.544Z,5.18
2022-10-07T15:42:46.075Z,5.13
2022-10-07T15:45:31.419Z,6.07
2022-10-07T15:48:23.273Z,5.85
2022-10-07T15:51:08.877Z,5.93
2022-10-07T15:53:55.970Z,5.32
2022-10-07T15:56:42.814Z,8.18
2022-10-07T15:59:28.165Z,6.53
2022-10-07T16:02:15.969Z,6.60
2022-10-07T16:05:01.250Z,9.02
2022-10-07T16:07:46.706Z,5.97
2022-10-07T16:10:36.975Z,7.00
2022-10-07T16:13:23.135Z,6.22
2022-10-07T16:16:11.745Z,11.77
2022-10-07T16:18:58.564Z,5.03
2022-10-07T16:21:44.196Z,4.97
2022-10-07T16:24:34.805Z,5.68
2022-10-07T16:27:21.106Z,7.55
2022-10-07T16:30:25.550Z,6.88
2022-10-07T16:33:11.043Z,6.05
2022-10-07T16:35:56.646Z,6.05
2022-10-07T16:38:42.524Z,5.72
2022-10-07T16:41:28.083Z,7.78
2022-10-07T16:44:14.661Z,6.85
2022-10-07T16:47:00.849Z,8.40
2022-10-07T16:49:46.373Z,5.25
2022-10-07T16:52:31.849Z,5.13
2022-10-07T16:55:18.166Z,6.22
2022-10-07T16:58:03.712Z,8.35
2022-10-07T17:00:49.315Z,6.38
2022-10-07T17:03:35.179Z,8.52
2022-10-07T17:06:22.494Z,6.65
2022-10-07T17:09:07.748Z,8.43
2022-10-07T17:11:53.225Z,8.90
2022-10-07T17:14:38.944Z,7.25
2022-10-07T17:17:24.370Z,8.32
2022-10-07T17:20:10.264Z,7.70
2022-10-07T17:22:55.924Z,9.32
2022-10-07T17:25:46.248Z,11.68
2022-10-07T17:28:32.048Z,8.80
2022-10-07T17:31:18.318Z,11.13
2022-10-07T17:34:03.865Z,8.02
2022-10-07T17:36:50.179Z,9.00
2022-10-07T17:39:35.678Z,9.35
2022-10-07T17:42:20.946Z,9.23
2022-10-07T17:45:07.124Z,8.50
2022-10-07T17:47:54.492Z,10.18
2022-10-07T17:50:39.903Z,11.07
2022-10-07T17:53:25.334Z,9.32
2022-10-07T17:56:15.791Z,14.00
2022-10-07T17:59:02.051Z,10.90
2022-10-07T18:01:48.326Z,10.88
2022-10-07T18:04:33.927Z,13.23
2022-10-07T18:07:19.519Z,12.98
2022-10-07T18:10:05.176Z,11.95
2022-10-07T18:13:09.015Z,13.40
2022-10-07T18:15:59.776Z,13.23
2022-10-07T18:18:45.361Z,16.45
2022-10-07T18:21:31.802Z,13.10
2022-10-07T18:24:17.394Z,12.85
2022-10-07T18:27:03.068Z,15.40
2022-10-07T18:29:48.466Z,10.43
2022-10-07T18:32:34.023Z,11.50
2022-10-07T18:35:19.843Z,9.18
2022-10-07T18:38:05.323Z,11.50
2022-10-07T18:40:50.921Z,10.32
2022-10-07T18:43:36.815Z,12.60
2022-10-07T18:46:23.337Z,9.52
2022-10-07T18:49:09.411Z,11.75
2022-10-07T18:51:54.706Z,13.30
2022-10-07T18:54:40.336Z,11.10
2022-10-07T18:57:25.751Z,12.25
2022-10-07T19:00:11.639Z,10.13
2022-10-07T19:02:56.860Z,11.05
2022-10-07T19:05:42.800Z,13.68
2022-10-07T19:08:27.977Z,9.82
2022-10-07T19:11:16.280Z,11.35
2022-10-07T19:14:01.898Z,13.07
2022-10-07T19:16:49.752Z,12.93
2022-10-07T19:19:35.425Z,12.75
2022-10-07T19:22:21.227Z,15.60
2022-10-07T19:25:25.956Z,11.07
2022-10-07T19:28:11.515Z,11.15
2022-10-07T19:30:59.036Z,13.73
2022-10-07T19:33:46.327Z,11.70
2022-10-07T19:36:34.361Z,12.57
2022-10-07T19:39:22.673Z,13.32
2022-10-07T19:42:08.403Z,11.38
2022-10-07T19:44:53.866Z,16.10
2022-10-07T19:47:39.516Z,13.15
2022-10-07T19:50:25.158Z,14.77
2022-10-07T19:53:10.922Z,12.18
2022-10-07T19:55:59.299Z,12.40
2022-10-07T19:58:50.133Z,16.73
2022-10-07T20:01:39.497Z,12.68
2022-10-07T20:04:24.952Z,11.23
2022-10-07T20:07:11.954Z,11.45
2022-10-07T20:09:57.492Z,11.75
2022-10-07T20:12:43.444Z,12.57
2022-10-07T20:15:29.151Z,12.82
2022-10-07T20:18:14.678Z,12.95
2022-10-07T20:21:11.278Z,12.30
2022-10-07T20:23:57.066Z,12.65
2022-10-07T20:26:44.014Z,13.20
2022-10-07T20:29:31.103Z,13.25
2022-10-07T20:32:16.484Z,13.57
2022-10-07T20:35:05.249Z,15.80
2022-10-07T20:37:50.581Z,14.80
2022-10-07T20:40:54.695Z,16.63
2022-10-07T20:43:39.934Z,14.65
2022-10-07T20:46:25.713Z,13.18
2022-10-07T20:49:25.223Z,14.65
2022-10-07T20:52:14.025Z,14.18
2022-10-07T20:54:59.353Z,16.33
2022-10-07T20:57:45.635Z,17.15
2022-10-07T21:00:32.867Z,20.42
2022-10-07T21:03:18.588Z,20.70
2022-10-07T21:06:05.565Z,18.75
2022-10-07T21:08:54.414Z,19.00
2022-10-07T21:11:40.413Z,16.10
2022-10-07T21:14:25.988Z,18.88
2022-10-07T21:17:12.298Z,17.02
2022-10-07T21:19:57.425Z,17.75
2022-10-07T21:22:43.047Z,19.08
2022-10-07T21:25:28.524Z,13.85
2022-10-07T21:28:14.535Z,19.63
2022-10-07T21:31:02.702Z,13.82
2022-10-07T21:33:50.156Z,14.63
2022-10-07T21:36:40.685Z,13.18
2022-10-07T21:39:26.472Z,11.63
2022-10-07T21:42:12.028Z,11.60
2022-10-07T21:44:57.570Z,12.82
2022-10-07T21:47:43.046Z,14.40
2022-10-07T21:50:28.708Z,15.57
2022-10-07T21:53:14.261Z,15.75
2022-10-07T21:56:05.568Z,14.70
2022-10-07T21:58:53.071Z,13.90
2022-10-07T22:01:38.973Z,16.17
2022-10-07T22:04:25.037Z,13.55
2022-10-07T22:07:30.881Z,14.80
2022-10-07T22:13:01.393Z,13.33
2022-10-07T22:15:46.704Z,12.65
2022-10-07T22:18:36.304Z,13.60
2022-10-07T22:21:25.160Z,15.63
2022-10-07T22:24:10.994Z,13.65
2022-10-07T22:26:56.308Z,15.73
2022-10-07T22:29:41.941Z,14.10
2022-10-07T22:32:28.238Z,17.38
2022-10-07T22:35:30.112Z,15.65
2022-10-07T22:38:15.555Z,13.10
2022-10-07T22:41:10.782Z,16.92
2022-10-07T22:43:56.549Z,13.70
2022-10-07T22:46:42.308Z,15.50
2022-10-07T22:49:30.002Z,14.98
2022-10-07T22:52:16.135Z,15.77
2022-10-07T22:55:05.975Z,17.45
2022-10-07T22:57:51.950Z,12.77
2022-10-07T23:00:38.244Z,14.77
2022-10-07T23:03:24.447Z,17.45
2022-10-07T23:06:11.743Z,17.10
2022-10-07T23:08:57.323Z,17.35
2022-10-07T23:11:43.098Z,14.20
2022-10-07T23:14:28.706Z,11.45
2022-10-07T23:17:14.111Z,12.70
2022-10-07T23:19:59.642Z,13.07
2022-10-07T23:22:45.354Z,13.38
2022-10-07T23:25:31.479Z,13.02
2022-10-07T23:28:17.085Z,14.55
2022-10-07T23:31:10.932Z,14.10
2022-10-07T23:33:57.317Z,13.27
2022-10-07T23:36:42.737Z,14.27
2022-10-07T23:39:28.741Z,13.75
2022-10-07T23:42:14.302Z,17.70
2022-10-07T23:45:01.564Z,14.20
2022-10-07T23:47:47.107Z,17.40
2022-10-07T23:50:32.666Z,12.70
2022-10-07T23:53:19.727Z,16.98
2022-10-07T23:56:05.686Z,19.55
2022-10-07T23:58:50.991Z,16.45
